sensor_id;sensor_type;location;lat;lon;timestamp;P1;durP1;ratioP1;P2;durP2;ratioP2
9052;SDS011;4561;47.450;7.516;2023-07-31T00:01:52;3.13;;;1.87;;
9052;SDS011;4561;47.450;7.516;2023-07-31T00:05:12;2.43;;;1.50;;
9052;SDS011;4561;47.450;7.516;2023-07-31T00:08:33;4.60;;;1.93;;
9052;SDS011;4561;47.450;7.516;2023-07-31T00:11:53;4.27;;;1.80;;
9052;SDS011;4561;47.450;7.516;2023-07-31T00:15:14;4.97;;;1.80;;
9052;SDS011;4561;47.450;7.516;2023-07-31T00:18:36;5.23;;;1.87;;
9052;SDS011;4561;47.450;7.516;2023-07-31T00:21:59;2.97;;;1.40;;
9052;SDS011;4561;47.450;7.516;2023-07-31T00:25:19;3.00;;;1.30;;
9052;SDS011;4561;47.450;7.516;2023-07-31T00:28:40;4.13;;;1.70;;
9052;SDS011;4561;47.450;7.516;2023-07-31T00:32:02;3.80;;;1.77;;
9052;SDS011;4561;47.450;7.516;2023-07-31T00:35:23;2.33;;;1.50;;
9052;SDS011;4561;47.450;7.516;2023-07-31T00:38:46;3.53;;;1.80;;
9052;SDS011;4561;47.450;7.516;2023-07-31T00:42:07;3.07;;;1.67;;
9052;SDS011;4561;47.450;7.516;2023-07-31T00:45:27;3.93;;;1.90;;
9052;SDS011;4561;47.450;7.516;2023-07-31T00:48:48;3.90;;;1.60;;
9052;SDS011;4561;47.450;7.516;2023-07-31T00:52:09;5.40;;;1.60;;
9052;SDS011;4561;47.450;7.516;2023-07-31T00:55:29;5.17;;;1.77;;
9052;SDS011;4561;47.450;7.516;2023-07-31T00:58:52;5.50;;;1.80;;
9052;SDS011;4561;47.450;7.516;2023-07-31T01:02:13;4.10;;;1.87;;
9052;SDS011;4561;47.450;7.516;2023-07-31T01:05:39;3.23;;;1.67;;
9052;SDS011;4561;47.450;7.516;2023-07-31T01:09:10;4.03;;;1.50;;
9052;SDS011;4561;47.450;7.516;2023-07-31T01:12:38;2.13;;;1.23;;
9052;SDS011;4561;47.450;7.516;2023-07-31T01:15:58;3.00;;;1.50;;
9052;SDS011;4561;47.450;7.516;2023-07-31T01:19:25;3.30;;;1.53;;
9052;SDS011;4561;47.450;7.516;2023-07-31T01:26:33;3.23;;;1.50;;
9052;SDS011;4561;47.450;7.516;2023-07-31T01:30:05;3.50;;;1.77;;
9052;SDS011;4561;47.450;7.516;2023-07-31T01:33:34;3.87;;;1.70;;
9052;SDS011;4561;47.450;7.516;2023-07-31T01:36:55;3.27;;;1.80;;
9052;SDS011;4561;47.450;7.516;2023-07-31T01:40:19;3.80;;;2.00;;
9052;SDS011;4561;47.450;7.516;2023-07-31T01:43:39;5.40;;;1.83;;
9052;SDS011;4561;47.450;7.516;2023-07-31T01:47:00;4.23;;;1.70;;
9052;SDS011;4561;47.450;7.516;2023-07-31T01:50:20;2.77;;;1.40;;
9052;SDS011;4561;47.450;7.516;2023-07-31T01:53:41;3.40;;;1.87;;
9052;SDS011;4561;47.450;7.516;2023-07-31T01:57:01;3.50;;;1.93;;
9052;SDS011;4561;47.450;7.516;2023-07-31T02:00:22;3.80;;;1.77;;
9052;SDS011;4561;47.450;7.516;2023-07-31T02:03:42;4.70;;;2.10;;
9052;SDS011;4561;47.450;7.516;2023-07-31T02:07:02;4.00;;;1.60;;
9052;SDS011;4561;47.450;7.516;2023-07-31T02:10:23;2.63;;;1.67;;
9052;SDS011;4561;47.450;7.516;2023-07-31T02:13:44;5.20;;;1.93;;
9052;SDS011;4561;47.450;7.516;2023-07-31T02:17:05;3.43;;;1.83;;
9052;SDS011;4561;47.450;7.516;2023-07-31T02:20:28;6.27;;;2.07;;
9052;SDS011;4561;47.450;7.516;2023-07-31T02:23:53;4.83;;;1.70;;
9052;SDS011;4561;47.450;7.516;2023-07-31T02:27:13;3.77;;;1.73;;
9052;SDS011;4561;47.450;7.516;2023-07-31T02:30:33;4.60;;;2.13;;
9052;SDS011;4561;47.450;7.516;2023-07-31T02:33:54;4.67;;;1.90;;
9052;SDS011;4561;47.450;7.516;2023-07-31T02:37:16;3.20;;;1.77;;
9052;SDS011;4561;47.450;7.516;2023-07-31T02:40:37;3.17;;;2.10;;
9052;SDS011;4561;47.450;7.516;2023-07-31T02:43:57;3.60;;;2.00;;
9052;SDS011;4561;47.450;7.516;2023-07-31T02:47:21;4.77;;;2.10;;
9052;SDS011;4561;47.450;7.516;2023-07-31T02:50:42;5.37;;;1.60;;
9052;SDS011;4561;47.450;7.516;2023-07-31T02:54:02;5.53;;;1.73;;
9052;SDS011;4561;47.450;7.516;2023-07-31T02:57:23;6.30;;;2.40;;
9052;SDS011;4561;47.450;7.516;2023-07-31T03:00:43;3.97;;;1.70;;
9052;SDS011;4561;47.450;7.516;2023-07-31T03:04:04;3.80;;;1.83;;
9052;SDS011;4561;47.450;7.516;2023-07-31T03:07:27;4.07;;;1.87;;
9052;SDS011;4561;47.450;7.516;2023-07-31T03:10:48;5.30;;;1.87;;
9052;SDS011;4561;47.450;7.516;2023-07-31T03:14:08;7.93;;;1.97;;
9052;SDS011;4561;47.450;7.516;2023-07-31T03:17:29;4.47;;;1.60;;
9052;SDS011;4561;47.450;7.516;2023-07-31T03:20:54;3.73;;;1.70;;
9052;SDS011;4561;47.450;7.516;2023-07-31T03:24:17;4.60;;;1.87;;
9052;SDS011;4561;47.450;7.516;2023-07-31T03:27:40;4.53;;;1.73;;
9052;SDS011;4561;47.450;7.516;2023-07-31T03:31:00;3.37;;;1.87;;
9052;SDS011;4561;47.450;7.516;2023-07-31T03:34:21;2.53;;;1.73;;
9052;SDS011;4561;47.450;7.516;2023-07-31T03:37:46;4.67;;;2.07;;
9052;SDS011;4561;47.450;7.516;2023-07-31T03:41:07;6.60;;;2.20;;
9052;SDS011;4561;47.450;7.516;2023-07-31T03:44:27;5.37;;;2.00;;
9052;SDS011;4561;47.450;7.516;2023-07-31T03:47:48;9.23;;;2.60;;
9052;SDS011;4561;47.450;7.516;2023-07-31T03:51:08;4.20;;;1.90;;
9052;SDS011;4561;47.450;7.516;2023-07-31T03:54:31;4.60;;;2.17;;
9052;SDS011;4561;47.450;7.516;2023-07-31T03:57:51;2.77;;;2.13;;
9052;SDS011;4561;47.450;7.516;2023-07-31T04:01:14;3.67;;;2.17;;
9052;SDS011;4561;47.450;7.516;2023-07-31T04:04:34;3.90;;;2.03;;
9052;SDS011;4561;47.450;7.516;2023-07-31T04:07:55;3.50;;;2.00;;
9052;SDS011;4561;47.450;7.516;2023-07-31T04:11:15;5.80;;;2.13;;
9052;SDS011;4561;47.450;7.516;2023-07-31T04:14:35;4.67;;;2.03;;
9052;SDS011;4561;47.450;7.516;2023-07-31T04:17:59;5.33;;;1.73;;
9052;SDS011;4561;47.450;7.516;2023-07-31T04:21:20;4.13;;;1.90;;
9052;SDS011;4561;47.450;7.516;2023-07-31T04:24:42;5.23;;;2.10;;
9052;SDS011;4561;47.450;7.516;2023-07-31T04:28:03;3.67;;;2.07;;
9052;SDS011;4561;47.450;7.516;2023-07-31T04:31:23;4.03;;;1.90;;
9052;SDS011;4561;47.450;7.516;2023-07-31T04:34:43;3.30;;;1.97;;
9052;SDS011;4561;47.450;7.516;2023-07-31T04:38:04;3.87;;;2.13;;
9052;SDS011;4561;47.450;7.516;2023-07-31T04:41:24;4.17;;;1.90;;
9052;SDS011;4561;47.450;7.516;2023-07-31T04:44:48;3.27;;;2.10;;
9052;SDS011;4561;47.450;7.516;2023-07-31T04:48:08;7.33;;;2.30;;
9052;SDS011;4561;47.450;7.516;2023-07-31T04:51:28;4.63;;;2.17;;
9052;SDS011;4561;47.450;7.516;2023-07-31T04:54:49;5.57;;;2.10;;
9052;SDS011;4561;47.450;7.516;2023-07-31T04:58:09;8.87;;;2.00;;
9052;SDS011;4561;47.450;7.516;2023-07-31T05:01:29;3.73;;;2.10;;
9052;SDS011;4561;47.450;7.516;2023-07-31T05:04:50;4.57;;;1.97;;
9052;SDS011;4561;47.450;7.516;2023-07-31T05:08:10;3.83;;;1.80;;
9052;SDS011;4561;47.450;7.516;2023-07-31T05:11:31;4.40;;;1.63;;
9052;SDS011;4561;47.450;7.516;2023-07-31T05:14:51;7.57;;;2.37;;
9052;SDS011;4561;47.450;7.516;2023-07-31T05:18:11;5.13;;;2.20;;
9052;SDS011;4561;47.450;7.516;2023-07-31T05:21:32;3.03;;;1.70;;
9052;SDS011;4561;47.450;7.516;2023-07-31T05:24:55;4.03;;;2.07;;
9052;SDS011;4561;47.450;7.516;2023-07-31T05:28:18;5.73;;;2.20;;
9052;SDS011;4561;47.450;7.516;2023-07-31T05:31:38;8.77;;;2.40;;
9052;SDS011;4561;47.450;7.516;2023-07-31T05:35:01;8.23;;;2.33;;
9052;SDS011;4561;47.450;7.516;2023-07-31T05:38:23;5.00;;;2.43;;
9052;SDS011;4561;47.450;7.516;2023-07-31T05:41:44;3.80;;;2.20;;
9052;SDS011;4561;47.450;7.516;2023-07-31T05:45:05;3.50;;;2.13;;
9052;SDS011;4561;47.450;7.516;2023-07-31T05:48:26;4.10;;;2.40;;
9052;SDS011;4561;47.450;7.516;2023-07-31T05:51:47;7.67;;;2.43;;
9052;SDS011;4561;47.450;7.516;2023-07-31T05:55:07;5.83;;;2.13;;
9052;SDS011;4561;47.450;7.516;2023-07-31T05:58:28;3.53;;;2.30;;
9052;SDS011;4561;47.450;7.516;2023-07-31T06:01:51;5.10;;;2.10;;
9052;SDS011;4561;47.450;7.516;2023-07-31T06:05:11;4.47;;;2.30;;
9052;SDS011;4561;47.450;7.516;2023-07-31T06:08:31;5.87;;;2.67;;
9052;SDS011;4561;47.450;7.516;2023-07-31T06:11:52;3.27;;;2.60;;
9052;SDS011;4561;47.450;7.516;2023-07-31T06:15:13;6.97;;;2.17;;
9052;SDS011;4561;47.450;7.516;2023-07-31T06:18:36;3.27;;;2.20;;
9052;SDS011;4561;47.450;7.516;2023-07-31T06:21:58;4.77;;;2.23;;
9052;SDS011;4561;47.450;7.516;2023-07-31T06:25:19;4.23;;;2.10;;
9052;SDS011;4561;47.450;7.516;2023-07-31T06:28:44;5.33;;;2.17;;
9052;SDS011;4561;47.450;7.516;2023-07-31T06:32:04;3.57;;;2.03;;
9052;SDS011;4561;47.450;7.516;2023-07-31T06:35:25;3.93;;;2.20;;
9052;SDS011;4561;47.450;7.516;2023-07-31T06:38:45;6.07;;;2.50;;
9052;SDS011;4561;47.450;7.516;2023-07-31T06:42:06;5.80;;;2.00;;
9052;SDS011;4561;47.450;7.516;2023-07-31T06:45:26;5.13;;;2.10;;
9052;SDS011;4561;47.450;7.516;2023-07-31T06:48:47;3.57;;;2.13;;
9052;SDS011;4561;47.450;7.516;2023-07-31T06:52:07;5.43;;;2.10;;
9052;SDS011;4561;47.450;7.516;2023-07-31T06:55:28;6.33;;;2.30;;
9052;SDS011;4561;47.450;7.516;2023-07-31T06:58:51;4.43;;;2.30;;
9052;SDS011;4561;47.450;7.516;2023-07-31T07:02:13;3.13;;;1.83;;
9052;SDS011;4561;47.450;7.516;2023-07-31T07:05:34;4.80;;;2.03;;
9052;SDS011;4561;47.450;7.516;2023-07-31T07:08:57;4.10;;;1.87;;
9052;SDS011;4561;47.450;7.516;2023-07-31T07:12:18;4.83;;;1.87;;
9052;SDS011;4561;47.450;7.516;2023-07-31T07:15:41;4.40;;;1.87;;
9052;SDS011;4561;47.450;7.516;2023-07-31T07:19:04;2.80;;;1.70;;
9052;SDS011;4561;47.450;7.516;2023-07-31T07:22:25;4.10;;;1.90;;
9052;SDS011;4561;47.450;7.516;2023-07-31T07:25:46;3.80;;;1.70;;
9052;SDS011;4561;47.450;7.516;2023-07-31T07:29:07;5.50;;;1.80;;
9052;SDS011;4561;47.450;7.516;2023-07-31T07:32:28;5.50;;;2.00;;
9052;SDS011;4561;47.450;7.516;2023-07-31T07:35:48;10.20;;;2.20;;
9052;SDS011;4561;47.450;7.516;2023-07-31T07:39:11;2.87;;;1.87;;
9052;SDS011;4561;47.450;7.516;2023-07-31T07:42:33;4.43;;;1.80;;
9052;SDS011;4561;47.450;7.516;2023-07-31T07:45:54;6.63;;;2.40;;
9052;SDS011;4561;47.450;7.516;2023-07-31T07:49:14;4.67;;;1.87;;
9052;SDS011;4561;47.450;7.516;2023-07-31T07:52:35;3.57;;;1.87;;
9052;SDS011;4561;47.450;7.516;2023-07-31T07:55:55;5.47;;;1.87;;
9052;SDS011;4561;47.450;7.516;2023-07-31T07:59:15;3.40;;;1.80;;
9052;SDS011;4561;47.450;7.516;2023-07-31T08:02:36;6.17;;;2.20;;
9052;SDS011;4561;47.450;7.516;2023-07-31T08:05:59;5.87;;;1.87;;
9052;SDS011;4561;47.450;7.516;2023-07-31T08:09:20;5.72;;;2.20;;
9052;SDS011;4561;47.450;7.516;2023-07-31T08:12:41;3.60;;;2.03;;
9052;SDS011;4561;47.450;7.516;2023-07-31T08:16:01;5.13;;;2.37;;
9052;SDS011;4561;47.450;7.516;2023-07-31T08:19:24;4.93;;;2.10;;
9052;SDS011;4561;47.450;7.516;2023-07-31T08:22:46;7.88;;;2.35;;
9052;SDS011;4561;47.450;7.516;2023-07-31T08:26:07;5.93;;;2.25;;
9052;SDS011;4561;47.450;7.516;2023-07-31T08:29:30;4.97;;;1.80;;
9052;SDS011;4561;47.450;7.516;2023-07-31T08:32:50;6.03;;;2.03;;
9052;SDS011;4561;47.450;7.516;2023-07-31T08:36:12;4.47;;;2.03;;
9052;SDS011;4561;47.450;7.516;2023-07-31T08:39:33;5.40;;;2.13;;
9052;SDS011;4561;47.450;7.516;2023-07-31T08:42:54;3.03;;;1.93;;
9052;SDS011;4561;47.450;7.516;2023-07-31T08:46:16;3.90;;;1.70;;
9052;SDS011;4561;47.450;7.516;2023-07-31T08:49:37;4.37;;;1.77;;
9052;SDS011;4561;47.450;7.516;2023-07-31T08:53:01;3.83;;;1.80;;
9052;SDS011;4561;47.450;7.516;2023-07-31T08:56:23;3.73;;;1.90;;
9052;SDS011;4561;47.450;7.516;2023-07-31T08:59:47;5.47;;;2.47;;
9052;SDS011;4561;47.450;7.516;2023-07-31T09:03:14;5.73;;;2.20;;
9052;SDS011;4561;47.450;7.516;2023-07-31T09:06:35;3.10;;;2.00;;
9052;SDS011;4561;47.450;7.516;2023-07-31T09:09:59;4.82;;;2.03;;
9052;SDS011;4561;47.450;7.516;2023-07-31T09:13:22;4.88;;;2.28;;
9052;SDS011;4561;47.450;7.516;2023-07-31T09:16:55;4.97;;;2.40;;
9052;SDS011;4561;47.450;7.516;2023-07-31T09:20:17;6.43;;;2.45;;
9052;SDS011;4561;47.450;7.516;2023-07-31T09:23:42;3.38;;;2.10;;
9052;SDS011;4561;47.450;7.516;2023-07-31T09:27:07;3.80;;;2.17;;
9052;SDS011;4561;47.450;7.516;2023-07-31T09:30:27;3.25;;;2.13;;
9052;SDS011;4561;47.450;7.516;2023-07-31T09:33:56;3.13;;;2.30;;
9052;SDS011;4561;47.450;7.516;2023-07-31T09:37:17;3.38;;;2.25;;
9052;SDS011;4561;47.450;7.516;2023-07-31T09:40:42;3.65;;;2.10;;
9052;SDS011;4561;47.450;7.516;2023-07-31T09:44:09;4.20;;;2.38;;
9052;SDS011;4561;47.450;7.516;2023-07-31T09:47:29;4.63;;;2.60;;
9052;SDS011;4561;47.450;7.516;2023-07-31T09:50:50;3.72;;;1.98;;
9052;SDS011;4561;47.450;7.516;2023-07-31T09:54:17;3.47;;;2.13;;
9052;SDS011;4561;47.450;7.516;2023-07-31T09:57:38;4.47;;;2.00;;
9052;SDS011;4561;47.450;7.516;2023-07-31T10:01:03;5.93;;;2.42;;
9052;SDS011;4561;47.450;7.516;2023-07-31T10:04:24;2.45;;;2.03;;
9052;SDS011;4561;47.450;7.516;2023-07-31T10:07:54;3.58;;;2.38;;
9052;SDS011;4561;47.450;7.516;2023-07-31T10:11:15;4.03;;;2.65;;
9052;SDS011;4561;47.450;7.516;2023-07-31T10:14:36;3.55;;;2.08;;
9052;SDS011;4561;47.450;7.516;2023-07-31T10:17:58;3.70;;;2.13;;
9052;SDS011;4561;47.450;7.516;2023-07-31T10:21:24;3.17;;;2.20;;
9052;SDS011;4561;47.450;7.516;2023-07-31T10:24:45;4.05;;;2.70;;
9052;SDS011;4561;47.450;7.516;2023-07-31T10:28:06;3.10;;;1.98;;
9052;SDS011;4561;47.450;7.516;2023-07-31T10:31:28;5.97;;;2.35;;
9052;SDS011;4561;47.450;7.516;2023-07-31T10:34:49;4.70;;;2.03;;
9052;SDS011;4561;47.450;7.516;2023-07-31T10:38:11;2.97;;;2.00;;
9052;SDS011;4561;47.450;7.516;2023-07-31T10:41:32;3.58;;;2.00;;
9052;SDS011;4561;47.450;7.516;2023-07-31T10:44:52;3.50;;;2.17;;
9052;SDS011;4561;47.450;7.516;2023-07-31T10:48:25;3.10;;;2.40;;
9052;SDS011;4561;47.450;7.516;2023-07-31T10:51:54;3.80;;;2.50;;
9052;SDS011;4561;47.450;7.516;2023-07-31T10:55:16;5.30;;;2.20;;
9052;SDS011;4561;47.450;7.516;2023-07-31T10:58:45;2.88;;;2.30;;
9052;SDS011;4561;47.450;7.516;2023-07-31T11:02:08;3.80;;;2.20;;
9052;SDS011;4561;47.450;7.516;2023-07-31T11:09:14;3.67;;;2.10;;
9052;SDS011;4561;47.450;7.516;2023-07-31T11:12:34;3.38;;;2.08;;
9052;SDS011;4561;47.450;7.516;2023-07-31T11:15:55;4.30;;;2.10;;
9052;SDS011;4561;47.450;7.516;2023-07-31T11:19:20;3.17;;;1.88;;
9052;SDS011;4561;47.450;7.516;2023-07-31T11:22:46;4.05;;;2.17;;
9052;SDS011;4561;47.450;7.516;2023-07-31T11:26:10;4.28;;;2.30;;
9052;SDS011;4561;47.450;7.516;2023-07-31T11:29:30;4.88;;;2.22;;
9052;SDS011;4561;47.450;7.516;2023-07-31T11:32:51;3.88;;;2.00;;
9052;SDS011;4561;47.450;7.516;2023-07-31T11:36:15;2.83;;;2.30;;
9052;SDS011;4561;47.450;7.516;2023-07-31T11:39:39;4.88;;;2.60;;
9052;SDS011;4561;47.450;7.516;2023-07-31T11:43:03;3.80;;;2.17;;
9052;SDS011;4561;47.450;7.516;2023-07-31T11:46:24;3.55;;;2.00;;
9052;SDS011;4561;47.450;7.516;2023-07-31T11:49:44;4.57;;;2.13;;
9052;SDS011;4561;47.450;7.516;2023-07-31T11:53:08;4.78;;;2.40;;
9052;SDS011;4561;47.450;7.516;2023-07-31T11:56:31;3.92;;;2.15;;
9052;SDS011;4561;47.450;7.516;2023-07-31T11:59:52;3.53;;;1.80;;
9052;SDS011;4561;47.450;7.516;2023-07-31T12:03:12;4.93;;;2.90;;
9052;SDS011;4561;47.450;7.516;2023-07-31T12:06:35;3.75;;;2.10;;
9052;SDS011;4561;47.450;7.516;2023-07-31T12:09:56;6.03;;;3.05;;
9052;SDS011;4561;47.450;7.516;2023-07-31T12:13:26;2.95;;;2.25;;
9052;SDS011;4561;47.450;7.516;2023-07-31T12:16:46;3.60;;;2.33;;
9052;SDS011;4561;47.450;7.516;2023-07-31T12:20:07;4.43;;;2.95;;
9052;SDS011;4561;47.450;7.516;2023-07-31T12:23:30;3.97;;;2.80;;
9052;SDS011;4561;47.450;7.516;2023-07-31T12:26:53;4.88;;;3.45;;
9052;SDS011;4561;47.450;7.516;2023-07-31T12:30:34;5.55;;;3.20;;
9052;SDS011;4561;47.450;7.516;2023-07-31T12:33:55;4.28;;;2.92;;
9052;SDS011;4561;47.450;7.516;2023-07-31T12:37:15;6.00;;;3.13;;
9052;SDS011;4561;47.450;7.516;2023-07-31T12:40:37;5.60;;;3.15;;
9052;SDS011;4561;47.450;7.516;2023-07-31T12:43:58;3.90;;;3.00;;
9052;SDS011;4561;47.450;7.516;2023-07-31T12:47:19;3.35;;;2.75;;
9052;SDS011;4561;47.450;7.516;2023-07-31T12:50:39;3.67;;;2.85;;
9052;SDS011;4561;47.450;7.516;2023-07-31T12:54:02;5.03;;;2.75;;
9052;SDS011;4561;47.450;7.516;2023-07-31T12:57:23;3.17;;;2.30;;
9052;SDS011;4561;47.450;7.516;2023-07-31T13:00:43;4.28;;;2.72;;
9052;SDS011;4561;47.450;7.516;2023-07-31T13:04:03;4.88;;;3.53;;
9052;SDS011;4561;47.450;7.516;2023-07-31T13:07:24;4.60;;;3.72;;
9052;SDS011;4561;47.450;7.516;2023-07-31T13:10:47;3.72;;;3.22;;
9052;SDS011;4561;47.450;7.516;2023-07-31T13:14:08;4.78;;;2.80;;
9052;SDS011;4561;47.450;7.516;2023-07-31T13:17:33;4.13;;;2.90;;
9052;SDS011;4561;47.450;7.516;2023-07-31T13:20:54;4.93;;;2.90;;
9052;SDS011;4561;47.450;7.516;2023-07-31T13:24:14;7.53;;;2.85;;
9052;SDS011;4561;47.450;7.516;2023-07-31T13:27:39;5.45;;;3.00;;
9052;SDS011;4561;47.450;7.516;2023-07-31T13:31:02;3.78;;;2.70;;
9052;SDS011;4561;47.450;7.516;2023-07-31T13:34:22;4.55;;;2.60;;
9052;SDS011;4561;47.450;7.516;2023-07-31T13:37:42;5.85;;;2.78;;
9052;SDS011;4561;47.450;7.516;2023-07-31T13:41:03;4.72;;;2.95;;
9052;SDS011;4561;47.450;7.516;2023-07-31T13:44:23;6.70;;;2.78;;
9052;SDS011;4561;47.450;7.516;2023-07-31T13:47:44;6.82;;;3.10;;
9052;SDS011;4561;47.450;7.516;2023-07-31T13:51:04;4.28;;;3.17;;
9052;SDS011;4561;47.450;7.516;2023-07-31T13:54:24;5.03;;;2.97;;
9052;SDS011;4561;47.450;7.516;2023-07-31T13:57:45;4.53;;;2.88;;
9052;SDS011;4561;47.450;7.516;2023-07-31T14:01:08;4.88;;;3.15;;
9052;SDS011;4561;47.450;7.516;2023-07-31T14:04:29;4.50;;;2.70;;
9052;SDS011;4561;47.450;7.516;2023-07-31T14:07:49;4.13;;;3.03;;
9052;SDS011;4561;47.450;7.516;2023-07-31T14:11:09;4.45;;;3.10;;
9052;SDS011;4561;47.450;7.516;2023-07-31T14:14:30;5.30;;;3.05;;
9052;SDS011;4561;47.450;7.516;2023-07-31T14:17:54;5.90;;;2.88;;
9052;SDS011;4561;47.450;7.516;2023-07-31T14:21:14;4.35;;;2.88;;
9052;SDS011;4561;47.450;7.516;2023-07-31T14:24:34;4.63;;;3.20;;
9052;SDS011;4561;47.450;7.516;2023-07-31T14:27:57;4.03;;;2.80;;
9052;SDS011;4561;47.450;7.516;2023-07-31T14:31:17;6.20;;;3.03;;
9052;SDS011;4561;47.450;7.516;2023-07-31T14:34:41;3.05;;;2.63;;
9052;SDS011;4561;47.450;7.516;2023-07-31T14:38:01;4.63;;;2.85;;
9052;SDS011;4561;47.450;7.516;2023-07-31T14:41:24;5.72;;;3.20;;
9052;SDS011;4561;47.450;7.516;2023-07-31T14:44:44;3.30;;;2.90;;
9052;SDS011;4561;47.450;7.516;2023-07-31T14:48:09;6.70;;;3.25;;
9052;SDS011;4561;47.450;7.516;2023-07-31T14:51:30;3.78;;;2.92;;
9052;SDS011;4561;47.450;7.516;2023-07-31T14:54:50;19.77;;;3.38;;
9052;SDS011;4561;47.450;7.516;2023-07-31T14:58:13;5.43;;;3.10;;
9052;SDS011;4561;47.450;7.516;2023-07-31T15:01:34;3.83;;;2.90;;
9052;SDS011;4561;47.450;7.516;2023-07-31T15:04:57;4.75;;;2.80;;
9052;SDS011;4561;47.450;7.516;2023-07-31T15:08:17;3.90;;;2.78;;
9052;SDS011;4561;47.450;7.516;2023-07-31T15:11:40;4.70;;;3.03;;
9052;SDS011;4561;47.450;7.516;2023-07-31T15:15:00;6.78;;;3.15;;
9052;SDS011;4561;47.450;7.516;2023-07-31T15:18:21;3.85;;;2.95;;
9052;SDS011;4561;47.450;7.516;2023-07-31T15:21:41;5.97;;;2.88;;
9052;SDS011;4561;47.450;7.516;2023-07-31T15:25:04;4.20;;;2.97;;
9052;SDS011;4561;47.450;7.516;2023-07-31T15:28:27;5.70;;;3.13;;
9052;SDS011;4561;47.450;7.516;2023-07-31T15:31:47;4.18;;;3.03;;
9052;SDS011;4561;47.450;7.516;2023-07-31T15:35:08;3.25;;;2.75;;
9052;SDS011;4561;47.450;7.516;2023-07-31T15:38:28;4.22;;;3.05;;
9052;SDS011;4561;47.450;7.516;2023-07-31T15:41:51;4.72;;;3.00;;
9052;SDS011;4561;47.450;7.516;2023-07-31T15:45:14;3.83;;;2.88;;
9052;SDS011;4561;47.450;7.516;2023-07-31T15:48:34;5.90;;;3.42;;
9052;SDS011;4561;47.450;7.516;2023-07-31T15:51:55;4.00;;;3.00;;
9052;SDS011;4561;47.450;7.516;2023-07-31T15:55:18;3.08;;;2.70;;
9052;SDS011;4561;47.450;7.516;2023-07-31T15:58:38;5.72;;;3.13;;
9052;SDS011;4561;47.450;7.516;2023-07-31T16:01:59;5.03;;;2.80;;
9052;SDS011;4561;47.450;7.516;2023-07-31T16:05:19;5.00;;;3.40;;
9052;SDS011;4561;47.450;7.516;2023-07-31T16:08:42;3.38;;;2.88;;
9052;SDS011;4561;47.450;7.516;2023-07-31T16:12:05;4.82;;;3.70;;
9052;SDS011;4561;47.450;7.516;2023-07-31T16:15:25;13.57;;;11.30;;
9052;SDS011;4561;47.450;7.516;2023-07-31T16:18:48;5.93;;;4.55;;
9052;SDS011;4561;47.450;7.516;2023-07-31T16:22:11;6.63;;;4.45;;
9052;SDS011;4561;47.450;7.516;2023-07-31T16:25:33;3.42;;;2.80;;
9052;SDS011;4561;47.450;7.516;2023-07-31T16:28:54;4.35;;;3.03;;
9052;SDS011;4561;47.450;7.516;2023-07-31T16:32:14;6.05;;;2.97;;
9052;SDS011;4561;47.450;7.516;2023-07-31T16:35:35;5.25;;;3.30;;
9052;SDS011;4561;47.450;7.516;2023-07-31T16:38:55;5.63;;;3.15;;
9052;SDS011;4561;47.450;7.516;2023-07-31T16:42:18;3.65;;;2.40;;
9052;SDS011;4561;47.450;7.516;2023-07-31T16:45:38;3.20;;;2.90;;
9052;SDS011;4561;47.450;7.516;2023-07-31T16:48:58;4.50;;;2.90;;
9052;SDS011;4561;47.450;7.516;2023-07-31T16:52:19;2.95;;;2.67;;
9052;SDS011;4561;47.450;7.516;2023-07-31T16:55:41;4.07;;;3.03;;
9052;SDS011;4561;47.450;7.516;2023-07-31T16:59:02;4.57;;;3.25;;
9052;SDS011;4561;47.450;7.516;2023-07-31T17:02:24;5.28;;;3.53;;
9052;SDS011;4561;47.450;7.516;2023-07-31T17:05:45;3.85;;;3.10;;
9052;SDS011;4561;47.450;7.516;2023-07-31T17:09:07;3.05;;;2.75;;
9052;SDS011;4561;47.450;7.516;2023-07-31T17:12:28;6.03;;;3.05;;
9052;SDS011;4561;47.450;7.516;2023-07-31T17:15:48;3.22;;;2.92;;
9052;SDS011;4561;47.450;7.516;2023-07-31T17:19:08;3.42;;;2.88;;
9052;SDS011;4561;47.450;7.516;2023-07-31T17:22:29;3.88;;;2.90;;
9052;SDS011;4561;47.450;7.516;2023-07-31T17:25:49;3.65;;;2.78;;
9052;SDS011;4561;47.450;7.516;2023-07-31T17:29:14;3.83;;;2.88;;
9052;SDS011;4561;47.450;7.516;2023-07-31T17:32:36;6.13;;;3.33;;
9052;SDS011;4561;47.450;7.516;2023-07-31T17:36:00;3.85;;;3.15;;
9052;SDS011;4561;47.450;7.516;2023-07-31T17:39:23;3.25;;;2.78;;
9052;SDS011;4561;47.450;7.516;2023-07-31T17:42:43;3.30;;;2.80;;
9052;SDS011;4561;47.450;7.516;2023-07-31T17:46:04;5.30;;;2.85;;
9052;SDS011;4561;47.450;7.516;2023-07-31T17:49:24;4.10;;;2.83;;
9052;SDS011;4561;47.450;7.516;2023-07-31T17:52:45;4.82;;;3.05;;
9052;SDS011;4561;47.450;7.516;2023-07-31T17:56:07;6.32;;;2.92;;
9052;SDS011;4561;47.450;7.516;2023-07-31T17:59:30;3.65;;;2.67;;
9052;SDS011;4561;47.450;7.516;2023-07-31T18:02:51;4.60;;;3.33;;
9052;SDS011;4561;47.450;7.516;2023-07-31T18:06:13;4.35;;;3.35;;
9052;SDS011;4561;47.450;7.516;2023-07-31T18:09:34;6.10;;;3.10;;
9052;SDS011;4561;47.450;7.516;2023-07-31T18:12:54;4.35;;;3.00;;
9052;SDS011;4561;47.450;7.516;2023-07-31T18:16:15;3.88;;;2.60;;
9052;SDS011;4561;47.450;7.516;2023-07-31T18:19:37;3.13;;;2.80;;
9052;SDS011;4561;47.450;7.516;2023-07-31T18:23:00;4.47;;;3.22;;
9052;SDS011;4561;47.450;7.516;2023-07-31T18:26:20;3.17;;;2.88;;
9052;SDS011;4561;47.450;7.516;2023-07-31T18:29:41;4.15;;;3.17;;
9052;SDS011;4561;47.450;7.516;2023-07-31T18:33:01;5.30;;;3.35;;
9052;SDS011;4561;47.450;7.516;2023-07-31T18:36:22;5.38;;;3.13;;
9052;SDS011;4561;47.450;7.516;2023-07-31T18:39:42;5.22;;;4.05;;
9052;SDS011;4561;47.450;7.516;2023-07-31T18:43:02;5.72;;;3.60;;
9052;SDS011;4561;47.450;7.516;2023-07-31T18:46:26;5.68;;;3.42;;
9052;SDS011;4561;47.450;7.516;2023-07-31T18:49:48;3.00;;;2.55;;
9052;SDS011;4561;47.450;7.516;2023-07-31T18:53:09;6.07;;;2.72;;
9052;SDS011;4561;47.450;7.516;2023-07-31T18:56:32;4.28;;;3.00;;
9052;SDS011;4561;47.450;7.516;2023-07-31T18:59:52;3.20;;;2.83;;
9052;SDS011;4561;47.450;7.516;2023-07-31T19:03:15;3.88;;;3.30;;
9052;SDS011;4561;47.450;7.516;2023-07-31T19:06:38;3.38;;;3.00;;
9052;SDS011;4561;47.450;7.516;2023-07-31T19:09:59;4.93;;;3.03;;
9052;SDS011;4561;47.450;7.516;2023-07-31T19:13:23;4.25;;;3.17;;
9052;SDS011;4561;47.450;7.516;2023-07-31T19:16:43;3.85;;;3.17;;
9052;SDS011;4561;47.450;7.516;2023-07-31T19:20:04;4.43;;;3.10;;
9052;SDS011;4561;47.450;7.516;2023-07-31T19:23:27;4.97;;;2.90;;
9052;SDS011;4561;47.450;7.516;2023-07-31T19:26:47;5.68;;;3.90;;
9052;SDS011;4561;47.450;7.516;2023-07-31T19:30:08;3.88;;;3.28;;
9052;SDS011;4561;47.450;7.516;2023-07-31T19:33:33;4.23;;;3.83;;
9052;SDS011;4561;47.450;7.516;2023-07-31T19:36:55;3.63;;;3.27;;
9052;SDS011;4561;47.450;7.516;2023-07-31T19:40:15;3.92;;;3.20;;
9052;SDS011;4561;47.450;7.516;2023-07-31T19:43:36;4.88;;;3.25;;
9052;SDS011;4561;47.450;7.516;2023-07-31T19:46:56;5.27;;;3.13;;
9052;SDS011;4561;47.450;7.516;2023-07-31T19:50:16;4.27;;;3.33;;
9052;SDS011;4561;47.450;7.516;2023-07-31T19:53:37;4.40;;;3.10;;
9052;SDS011;4561;47.450;7.516;2023-07-31T19:57:00;3.50;;;3.20;;
9052;SDS011;4561;47.450;7.516;2023-07-31T20:00:20;3.60;;;3.07;;
9052;SDS011;4561;47.450;7.516;2023-07-31T20:03:41;4.17;;;2.97;;
9052;SDS011;4561;47.450;7.516;2023-07-31T20:07:01;3.67;;;3.00;;
9052;SDS011;4561;47.450;7.516;2023-07-31T20:10:22;5.13;;;3.70;;
9052;SDS011;4561;47.450;7.516;2023-07-31T20:13:44;3.67;;;3.03;;
9052;SDS011;4561;47.450;7.516;2023-07-31T20:17:04;4.60;;;3.70;;
9052;SDS011;4561;47.450;7.516;2023-07-31T20:20:25;4.40;;;3.50;;
9052;SDS011;4561;47.450;7.516;2023-07-31T20:23:46;5.83;;;4.00;;
9052;SDS011;4561;47.450;7.516;2023-07-31T20:27:07;5.70;;;3.57;;
9052;SDS011;4561;47.450;7.516;2023-07-31T20:30:27;4.73;;;3.73;;
9052;SDS011;4561;47.450;7.516;2023-07-31T20:33:48;4.30;;;3.40;;
9052;SDS011;4561;47.450;7.516;2023-07-31T20:37:08;4.00;;;3.70;;
9052;SDS011;4561;47.450;7.516;2023-07-31T20:40:29;3.67;;;3.30;;
9052;SDS011;4561;47.450;7.516;2023-07-31T20:43:49;6.13;;;4.13;;
9052;SDS011;4561;47.450;7.516;2023-07-31T20:47:10;5.57;;;3.70;;
9052;SDS011;4561;47.450;7.516;2023-07-31T20:50:33;4.37;;;3.80;;
9052;SDS011;4561;47.450;7.516;2023-07-31T20:53:58;4.17;;;3.60;;
9052;SDS011;4561;47.450;7.516;2023-07-31T20:57:18;5.83;;;4.97;;
9052;SDS011;4561;47.450;7.516;2023-07-31T21:00:38;6.07;;;4.67;;